Date,TemperatureHighF,TemperatureAvgF,TemperatureLowF,DewpointHighF,DewpointAvgF,DewpointLowF,HumidityHigh,HumidityAvg,HumidityLow,PressureMaxIn,PressureMinIn,WindSpeedMaxMPH,WindSpeedAvgMPH,GustSpeedMaxMPH,PrecipitationSumIn
2013-1-1,51.4,48.6,39.7,51.0,46.9,39.0,98,94,75,30.16,30.02,15,2,0,0.02
2013-1-2,39.6,36.4,34.4,39.0,35.2,34.0,97,95,93,30.30,30.13,9,4,0,0.01
2013-1-3,41.3,35.1,29.5,34.0,30.6,27.0,97,84,62,30.49,30.26,10,3,0,0.01
2013-1-4,45.5,34.5,25.6,30.0,26.5,24.0,96,75,47,30.55,30.45,8,2,0,0.37
2013-1-5,48.5,37.6,26.9,37.0,30.2,25.0,95,77,46,30.51,30.37,6,1,0,0.32
2013-1-6,49.0,40.9,36.8,40.0,37.2,33.0,97,87,63,30.40,30.29,9,2,0,0.03
2013-1-7,53.5,39.6,29.1,34.0,31.0,27.0,93,74,42,30.48,30.37,7,2,0,0.05
2013-1-8,57.1,46.5,35.0,46.0,39.0,30.0,86,76,63,30.45,30.33,8,3,0,0.03
2013-1-9,58.3,53.3,48.9,55.0,51.0,45.0,96,92,83,30.46,30.37,14,2,0,0.01
2013-1-10,64.7,59.9,56.2,62.0,57.9,54.0,97,93,88,30.43,30.12,14,4,0,0.01
2013-1-11,65.4,63.7,61.6,64.0,62.1,60.0,98,94,85,30.20,30.13,12,4,0,0.01
2013-1-12,69.7,66.4,64.1,66.0,63.3,59.0,98,90,81,30.16,30.02,11,3,0,0.00
2013-1-13,69.0,62.2,42.8,64.0,59.7,42.0,96,91,83,30.16,29.97,16,6,0,0.00
2013-1-14,42.4,39.4,34.7,42.0,38.6,34.0,97,97,95,30.32,30.16,16,4,0,0.00
2013-1-15,47.1,41.7,37.2,47.0,41.2,37.0,98,98,97,30.22,30.02,7,2,0,0.00
2013-1-16,45.2,40.2,37.9,45.0,39.6,37.0,98,97,96,30.16,30.00,10,3,0,0.00
2013-1-17,41.9,37.9,32.4,41.0,36.1,31.0,98,93,83,30.47,29.93,22,7,0,0.01
2013-1-18,48.9,37.0,27.8,36.0,31.4,27.0,97,81,47,30.67,30.47,11,1,0,0.09
2013-1-19,54.8,41.3,30.0,34.0,31.3,28.0,93,70,42,30.52,30.32,7,1,0,0.16
2013-1-20,59.3,43.9,31.3,40.0,35.4,30.0,94,74,47,30.34,30.23,6,1,0,0.01
2013-1-21,45.6,37.7,31.4,37.0,26.8,18.0,97,68,40,30.34,30.20,12,3,0,0.02
2013-1-22,39.5,32.4,26.6,26.0,18.4,15.0,81,57,42,30.48,30.34,10,2,0,0.40
2013-1-23,53.5,44.0,32.4,40.0,32.6,24.0,82,65,51,30.48,30.29,13,4,0,0.03
2013-1-24,47.4,42.4,35.2,42.0,29.4,15.0,84,62,40,30.43,30.27,12,3,0,0.04
2013-1-25,50.2,42.1,36.1,44.0,30.5,-99.9,97,69,40,30.37,30.18,9,-19,0,0.00
2013-1-26,51.5,42.8,35.9,41.0,34.9,30.0,97,76,46,30.41,30.26,9,2,0,0.01
2013-1-27,51.1,46.6,42.1,40.0,36.9,34.0,76,69,64,30.47,30.38,11,3,0,0.00
2013-1-28,64.1,52.9,45.4,55.0,46.5,35.0,93,79,63,30.42,30.27,11,2,0,0.00
2013-1-29,67.8,59.4,50.3,64.0,57.1,49.0,97,92,85,30.27,29.87,12,2,0,0.00
2013-1-30,69.7,54.8,36.3,65.0,51.2,28.0,97,88,71,30.00,29.63,27,10,0,0.01
2013-1-31,47.7,38.5,30.5,29.0,27.2,25.0,84,65,44,30.26,30.01,16,7,0,0.01
2013-2-1,40.5,31.2,24.3,34.0,19.1,11.0,87,62,37,30.54,30.23,17,4,0,0.12
2013-2-2,40.9,33.4,23.7,37.0,27.7,16.0,97,80,58,30.46,30.24,11,2,0,0.04
2013-2-3,52.5,43.0,34.5,39.0,32.1,27.0,97,69,40,30.27,30.16,17,6,0,0.01
2013-2-4,49.3,40.3,30.5,35.0,31.1,28.0,92,71,46,30.21,30.06,5,1,0,0.01
2013-2-5,55.0,47.2,39.7,51.0,43.3,36.0,97,86,67,30.15,30.03,7,1,0,0.01
2013-2-6,63.5,48.4,34.4,50.0,39.2,34.0,98,75,38,30.27,30.14,8,1,0,0.00
2013-2-7,53.9,49.0,46.7,48.0,44.6,36.0,96,85,52,30.19,30.01,10,3,0,0.00
2013-2-8,48.8,44.2,34.7,48.0,41.4,31.0,97,90,77,30.34,30.00,17,4,0,0.00
2013-2-9,61.5,44.3,30.7,36.0,31.9,28.0,92,66,28,30.41,30.27,8,1,0,0.07
2013-2-10,55.8,51.8,48.4,55.0,44.0,33.0,100,77,54,30.28,30.04,10,2,0,0.08
2013-2-11,56.2,52.7,44.3,55.0,48.9,41.0,100,87,66,30.23,30.07,8,2,0,0.00
2013-2-12,49.8,44.9,40.7,42.0,38.9,33.0,93,80,54,30.23,29.86,12,2,0,0.01
2013-2-13,46.1,42.8,35.2,45.0,40.2,33.0,97,90,83,30.11,29.78,18,5,0,0.00
2013-2-14,53.4,42.2,34.5,40.0,36.7,33.0,96,81,56,30.18,30.11,8,1,0,0.00
2013-2-15,56.8,44.7,33.8,43.0,36.7,31.0,96,75,50,30.21,30.11,12,4,0,0.00
2013-2-16,39.6,33.8,28.4,31.0,21.7,15.0,75,62,41,30.31,30.14,15,5,0,0.01
2013-2-17,46.1,33.4,19.6,25.0,19.2,15.0,88,59,34,30.43,30.32,8,1,0,0.21
2013-2-18,59.2,46.7,31.6,36.0,29.3,20.0,70,52,40,30.39,30.04,18,4,0,0.15
2013-2-19,51.8,44.8,36.5,45.0,32.7,21.0,97,66,35,30.31,30.01,18,4,0,0.01
2013-2-20,40.5,35.9,28.9,25.0,21.4,17.0,81,57,39,30.35,30.25,11,2,0,0.40
2013-2-21,56.1,44.0,31.6,46.0,29.6,20.0,95,61,24,30.27,29.97,12,4,0,0.03
2013-2-22,47.7,46.1,44.1,46.0,44.6,43.0,97,94,92,30.15,30.03,12,4,0,0.03
2013-2-23,50.6,45.8,37.9,48.0,44.3,37.0,97,95,90,30.07,29.95,6,2,0,0.02
2013-2-24,57.5,43.4,30.7,40.0,36.1,30.0,98,78,46,30.17,30.03,7,2,0,0.01
2013-2-25,55.9,47.5,41.6,43.0,37.3,31.0,94,69,56,30.05,29.58,20,7,0,0.01
2013-2-26,47.3,43.7,39.8,45.0,39.4,33.0,96,85,71,29.89,29.55,29,9,0,0.01
2013-2-27,54.9,45.2,39.0,39.0,34.6,31.0,81,67,49,30.01,29.90,18,9,0,0.00
2013-2-28,40.4,37.0,34.5,35.0,29.5,27.0,89,75,65,30.15,29.97,12,5,0,0.00
2013-3-1,38.6,35.6,33.1,32.0,30.1,27.0,91,81,71,30.16,30.10,12,3,0,0.00
2013-3-2,35.4,32.8,30.4,31.0,29.2,25.0,94,86,76,30.22,30.11,12,5,0,0.00
2013-3-3,41.2,32.4,27.6,26.0,22.3,19.0,85,68,41,30.26,30.19,11,4,0,0.10
2013-3-4,56.4,44.4,27.4,41.0,28.9,22.0,88,58,36,30.28,30.02,16,2,0,0.09
2013-3-5,62.2,49.9,36.0,57.0,44.9,31.0,91,83,67,30.09,29.75,24,10,0,0.01
2013-3-6,41.3,35.7,30.4,31.0,26.3,21.0,84,69,61,30.35,30.09,17,7,0,0.03
2013-3-7,51.0,38.2,29.1,35.0,30.1,26.0,88,74,52,30.43,30.34,9,2,0,0.08
2013-3-8,60.2,44.0,29.6,35.0,29.1,24.0,91,61,26,30.46,30.33,7,1,0,0.05
2013-3-9,65.2,52.2,37.7,38.0,33.3,28.0,73,50,35,30.36,30.16,11,2,0,0.05
2013-3-10,74.8,62.0,51.5,50.0,40.5,34.0,63,46,34,30.20,29.99,22,3,0,0.00
2013-3-11,62.5,51.6,39.5,53.0,46.3,35.0,96,83,64,30.02,29.86,14,4,0,0.00
2013-3-12,52.9,42.0,34.2,36.0,33.2,30.0,86,72,50,30.25,30.02,17,5,0,0.01
2013-3-13,48.1,41.6,32.7,31.0,27.0,22.0,88,58,39,30.44,30.23,17,6,0,0.00
2013-3-14,53.9,40.4,28.8,32.0,21.7,16.0,72,51,23,30.51,30.34,11,3,0,0.03
2013-3-15,73.3,55.2,36.1,48.0,38.4,26.0,75,55,37,30.35,30.04,19,6,0,0.04
2013-3-16,73.0,61.9,51.7,50.0,45.8,44.0,75,57,39,30.06,29.95,18,7,0,0.00
2013-3-17,67.1,59.8,52.4,55.0,51.3,46.0,91,74,59,30.05,29.93,16,4,0,0.00
2013-3-18,69.7,58.5,51.5,62.0,52.6,-99.9,96,87,75,29.97,29.79,18,-6,0,0.00
2013-3-19,58.6,50.1,39.0,51.0,35.4,24.0,91,60,37,30.21,29.97,16,5,0,0.00
2013-3-20,54.5,46.6,38.9,31.0,25.7,14.0,71,45,26,30.23,30.05,15,4,0,0.00
2013-3-21,44.0,37.1,27.9,31.0,20.5,13.0,78,53,32,30.16,30.03,11,4,0,0.01
2013-3-22,46.4,41.4,36.1,40.0,32.2,25.0,90,71,56,30.15,30.05,7,2,0,0.01
2013-3-23,55.1,48.1,42.6,51.0,46.0,40.0,96,92,85,30.06,29.77,12,3,0,0.00
2013-3-24,61.6,49.7,38.4,54.0,42.8,-99.9,97,82,63,29.87,29.56,33,-2,0,0.01
2013-3-25,38.6,34.3,32.8,29.0,22.5,-99.9,80,66,59,30.23,29.87,20,-12,0,0.00
2013-3-26,38.5,35.0,31.6,29.0,27.3,26.0,83,74,65,30.44,30.22,11,4,0,0.01
2013-3-27,51.0,39.1,25.9,32.0,28.2,24.0,93,68,39,30.50,30.38,12,2,0,0.01
2013-3-28,59.8,46.4,32.0,37.0,32.0,27.0,94,62,33,30.46,30.34,8,1,0,0.01
2013-3-29,65.4,52.8,36.0,43.0,37.1,33.0,89,59,34,30.39,30.22,12,2,0,0.00
2013-3-30,67.7,55.6,48.7,56.0,49.3,42.0,97,80,54,30.25,30.04,8,1,0,0.00
2013-3-31,66.5,59.1,55.5,58.0,56.1,54.0,97,90,68,30.04,29.93,15,5,0,0.00
2013-4-1,67.3,57.6,50.2,56.0,49.5,43.0,97,77,43,30.15,29.94,13,4,0,0.00
2013-4-2,58.0,50.1,42.9,43.0,35.0,29.0,81,58,37,30.28,30.13,10,4,0,0.00
2013-4-3,54.6,47.1,42.7,43.0,35.4,26.0,92,66,41,30.26,30.18,12,3,0,0.00
2013-4-4,46.0,43.6,41.4,44.0,41.8,40.0,95,93,91,30.20,30.04,13,6,0,0.00
2013-4-5,62.7,50.7,41.4,47.0,42.1,38.0,97,75,41,30.19,30.07,16,4,0,0.00
2013-4-6,73.2,56.6,38.2,45.0,40.5,36.0,93,60,31,30.24,30.10,14,2,0,0.00
2013-4-7,74.2,62.6,48.5,52.0,48.4,41.0,84,61,42,30.21,30.07,13,2,0,0.00
2013-4-8,76.4,65.1,56.5,61.0,55.3,50.0,90,72,49,30.15,30.05,13,3,0,0.00
2013-4-9,82.1,68.7,55.1,61.0,57.7,53.0,94,70,48,30.21,30.05,10,2,0,0.00
2013-4-10,83.7,71.5,59.6,62.0,59.1,56.0,87,66,46,30.13,29.91,14,2,0,0.00
2013-4-11,76.0,65.2,59.7,66.0,57.5,-99.9,96,81,70,29.93,29.61,17,-18,0,0.00
2013-4-12,63.7,53.5,44.4,57.0,44.3,39.0,96,74,43,30.06,29.75,12,5,0,0.00
2013-4-13,70.9,57.9,42.8,50.0,44.1,41.0,95,64,36,30.17,30.05,8,1,0,0.00
2013-4-14,60.2,55.6,48.2,54.0,48.4,41.0,92,78,51,30.09,29.92,13,2,0,0.00
2013-4-15,74.5,64.6,56.1,63.0,58.8,54.0,95,82,66,30.13,29.97,7,1,0,0.00
2013-4-16,81.1,70.9,62.7,68.0,64.1,59.0,90,80,64,30.23,30.13,9,2,0,0.00
2013-4-17,83.4,73.2,63.2,69.0,65.7,62.0,96,78,59,30.23,30.08,12,2,0,0.00
2013-4-18,81.1,71.6,62.9,65.0,61.7,59.0,95,72,49,30.08,29.76,15,3,0,0.00
2013-4-19,72.6,51.6,43.0,66.0,45.9,35.0,95,81,60,30.22,29.74,22,6,0,0.00
2013-4-20,59.9,48.1,33.2,40.0,35.5,32.0,96,65,37,30.35,30.23,12,2,0,0.00
2013-4-21,68.1,55.9,42.9,44.0,39.7,36.0,77,57,37,30.41,30.28,8,1,0,0.00
2013-4-22,71.8,59.7,50.6,52.0,46.9,42.0,82,64,45,30.34,30.17,11,1,0,0.00
2013-4-23,74.0,62.6,52.4,55.0,49.1,40.0,81,63,44,30.25,30.09,9,2,0,0.00
2013-4-24,65.3,57.5,46.7,62.0,53.5,42.0,95,87,73,30.30,30.07,13,4,0,0.00
2013-4-25,63.9,51.2,40.4,43.0,38.9,34.0,90,66,34,30.43,30.29,10,3,0,0.00
2013-4-26,75.7,59.1,42.2,49.0,40.8,35.0,82,55,27,30.45,30.29,12,1,0,0.00
2013-4-27,76.7,63.3,55.5,63.0,54.5,-99.9,94,76,50,30.36,30.05,10,-9,0,0.00
2013-4-28,65.3,60.6,56.6,64.0,59.3,56.0,97,95,90,30.11,29.96,10,2,0,0.00
2013-4-29,72.0,62.5,56.1,59.0,56.6,54.0,98,82,58,30.10,29.99,6,1,0,0.00
2013-4-30,80.2,65.8,50.2,62.0,55.5,49.0,98,73,40,30.10,30.00,5,0,0,0.00
2013-5-1,70.6,66.1,62.3,61.0,58.9,55.0,90,77,68,30.19,30.09,15,2,0,0.00
2013-5-2,66.9,62.8,57.9,61.0,57.5,54.0,87,83,76,30.21,30.13,11,2,0,0.00
2013-5-3,70.8,62.9,59.0,59.0,57.0,56.0,94,82,63,30.12,29.93,13,3,0,0.00
2013-5-4,58.7,46.2,41.8,57.0,44.8,40.0,96,95,88,30.05,29.93,10,2,0,0.00
2013-5-5,59.6,49.2,43.5,50.0,46.8,43.0,97,91,70,29.98,29.88,8,2,0,0.00
2013-5-6,55.0,49.5,47.3,52.0,48.5,47.0,97,96,86,29.99,29.87,12,3,0,0.00
2013-5-7,67.4,55.9,47.0,54.0,50.4,46.0,98,83,56,30.09,29.97,8,1,0,0.00
2013-5-8,75.5,61.9,48.0,61.0,55.4,47.0,98,81,56,30.15,30.07,11,2,0,0.00
2013-5-9,79.7,67.2,53.3,63.0,58.9,52.0,98,77,50,30.19,30.07,12,2,0,0.00
2013-5-10,72.8,66.1,61.8,62.0,59.3,58.0,90,79,64,30.12,29.99,16,3,0,0.00
2013-5-11,72.5,64.7,57.5,66.0,61.2,53.0,96,88,74,30.07,29.97,9,2,0,0.00
2013-5-12,63.7,56.2,47.1,53.0,43.4,36.0,95,65,37,30.23,30.07,13,3,0,0.00
2013-5-13,67.3,55.0,39.5,50.0,42.2,37.0,96,66,38,30.35,30.21,12,2,0,0.00
2013-5-14,78.7,64.5,46.8,59.0,53.2,45.0,95,69,48,30.30,30.15,14,3,0,0.00
2013-5-15,81.6,69.1,55.3,61.0,57.7,53.0,94,69,44,30.23,30.07,10,2,0,0.00
2013-5-16,82.1,70.0,60.8,64.0,59.5,51.0,93,72,40,30.12,30.03,14,2,0,0.00
2013-5-17,74.7,68.0,63.6,69.0,64.5,60.0,97,88,72,30.11,30.02,8,1,0,0.00
2013-5-18,77.7,70.8,65.3,73.0,68.6,65.0,98,93,81,30.10,30.03,9,2,0,0.00
2013-5-19,80.5,71.3,63.4,73.0,68.6,61.0,98,91,77,30.11,30.03,11,3,0,0.00
2013-5-20,83.0,71.0,60.4,71.0,66.0,59.0,97,85,65,30.14,30.03,13,1,0,0.00
2013-5-21,85.9,75.0,63.4,72.0,67.9,63.0,98,80,58,30.07,29.90,9,2,0,0.00
2013-5-22,80.3,73.0,67.9,70.0,67.0,63.0,94,82,64,29.99,29.90,16,3,0,0.00
2013-5-23,80.3,71.7,63.8,67.0,62.9,58.0,98,76,52,30.10,29.96,18,3,0,0.00
2013-5-24,72.2,64.4,56.2,58.0,52.8,48.0,87,68,44,30.31,30.10,13,4,0,0.00
2013-5-25,76.3,63.5,51.1,56.0,49.2,39.0,88,63,27,30.38,30.24,5,1,0,0.00
2013-5-26,82.9,68.6,52.9,63.0,54.6,49.0,94,65,31,30.31,30.19,8,1,0,0.00
2013-5-27,83.4,71.6,57.9,64.0,60.8,56.0,93,71,49,30.25,30.12,10,2,0,0.00
2013-5-28,84.5,73.6,61.2,66.0,62.6,59.0,92,70,52,30.20,30.10,12,1,0,0.00
2013-5-29,87.2,76.1,65.2,69.0,64.3,59.0,83,68,48,30.21,30.10,8,1,0,0.00
2013-5-30,83.2,75.4,68.8,71.0,67.4,64.0,86,76,63,30.21,30.09,11,1,0,0.00
2013-5-31,85.5,76.5,69.6,71.0,67.6,66.0,88,75,54,30.17,30.05,11,2,0,0.00
2013-6-1,83.3,74.0,66.3,74.0,69.1,64.0,97,85,70,30.09,29.98,13,2,0,0.01
2013-6-2,79.7,73.8,66.1,71.0,68.3,65.0,96,84,65,30.01,29.93,8,1,0,0.02
2013-6-3,79.7,71.5,63.5,69.0,64.9,61.0,97,81,58,30.03,29.94,11,2,0,0.00
2013-6-4,83.8,73.2,61.4,68.0,63.9,59.0,93,74,54,30.07,29.99,5,0,0,0.00
2013-6-5,77.9,70.1,66.7,73.0,67.3,63.0,97,91,83,30.04,29.89,5,0,0,0.00
2013-6-6,80.8,72.2,64.5,74.0,68.6,64.0,98,89,68,29.94,29.79,7,1,0,0.00
2013-6-7,76.5,70.2,65.6,71.0,68.4,65.0,97,94,80,29.93,29.75,6,1,0,0.00
2013-6-8,80.0,71.3,64.3,69.0,65.6,63.0,99,84,59,30.09,29.92,10,2,0,0.00
2013-6-9,82.7,73.0,68.0,73.0,69.4,66.0,96,89,67,30.11,29.97,13,3,0,0.00
2013-6-10,83.6,74.8,66.2,70.0,68.5,65.0,97,82,59,30.05,29.96,13,5,0,0.00
2013-6-11,89.5,79.5,71.3,76.0,72.7,70.0,97,81,57,30.09,30.01,16,4,0,0.00
2013-6-12,90.7,80.9,69.9,77.0,73.0,69.0,97,78,51,30.12,30.01,11,3,0,0.00
2013-6-13,87.6,78.9,71.6,78.0,73.6,68.0,95,84,70,30.02,29.82,17,5,0,0.00
2013-6-14,81.8,73.4,64.6,67.0,63.6,61.0,92,73,49,30.06,29.93,11,2,0,0.00
2013-6-15,86.3,72.8,61.3,69.0,61.0,-99.9,95,72,47,30.15,30.05,9,-20,0,0.00
2013-6-16,86.3,73.4,65.8,76.0,65.3,-99.9,95,80,64,30.15,30.02,9,-19,0,0.00
2013-6-17,84.6,72.9,68.6,76.0,70.1,67.0,97,91,70,30.06,29.96,8,1,0,0.00
2013-6-18,80.4,73.1,68.7,73.0,69.8,67.0,98,90,75,29.99,29.90,12,3,0,0.00
2013-6-19,84.0,74.7,65.9,71.0,67.8,65.0,97,80,57,30.11,29.98,10,1,0,0.00
2013-6-20,87.4,76.7,65.6,71.0,68.2,65.0,97,77,55,30.22,30.11,8,0,0,0.00
2013-6-21,87.0,75.6,65.6,70.0,67.0,64.0,95,76,53,30.26,30.16,4,0,0,0.00
2013-6-22,87.3,76.4,67.7,69.0,65.6,63.0,92,71,46,30.25,30.11,6,0,0,0.00
2013-6-23,87.4,76.0,64.7,72.0,68.3,63.0,94,78,56,30.21,30.11,5,0,0,0.00
2013-6-24,84.4,75.9,68.9,75.0,71.1,68.0,96,85,68,30.24,30.12,6,1,0,0.00
2013-6-25,85.0,76.4,70.9,75.0,71.9,70.0,97,86,65,30.19,30.06,11,2,0,0.00
2013-6-26,87.3,78.8,69.0,76.0,72.8,68.0,97,82,64,30.11,29.95,13,4,0,0.00
2013-6-27,90.2,79.1,68.9,79.0,72.5,67.0,94,81,57,30.01,29.86,17,4,0,0.00
2013-6-28,86.1,78.4,70.8,76.0,71.4,68.0,97,80,57,29.89,29.73,11,3,0,0.00
2013-6-29,85.5,77.7,68.2,72.0,66.6,61.0,95,72,44,29.77,29.70,11,2,0,0.00
2013-6-30,85.4,74.2,62.4,70.0,64.3,60.0,94,73,43,29.83,29.74,10,2,0,0.00
2013-7-1,83.0,73.0,63.1,70.0,65.8,62.0,97,80,54,29.94,29.80,9,2,0,0.00
2013-7-2,82.9,73.4,63.1,68.0,65.5,62.0,97,78,56,30.08,29.94,14,3,0,0.00
2013-7-3,80.6,72.8,68.5,73.0,69.2,66.0,96,88,75,30.14,30.07,4,0,0,0.02
2013-7-4,77.9,72.0,69.4,72.0,69.5,68.0,96,92,73,30.14,30.06,14,1,0,0.00
2013-7-5,74.0,71.4,69.2,72.0,69.8,68.0,97,95,88,30.19,30.10,6,1,0,0.00
2013-7-6,73.0,70.7,69.3,72.0,69.9,69.0,98,97,95,30.17,30.11,4,0,0,0.01
2013-7-7,82.8,75.0,70.4,75.0,71.7,70.0,98,90,75,30.19,30.12,6,1,0,0.01
2013-7-8,82.3,75.3,69.8,76.0,72.5,69.0,98,91,78,30.23,30.13,7,1,0,0.00
2013-7-9,86.5,78.0,72.2,77.0,73.7,71.0,98,87,64,30.23,30.09,7,1,0,0.00
2013-7-10,85.6,78.3,69.9,78.0,73.9,69.0,98,87,66,30.13,29.97,9,2,0,0.00
2013-7-11,84.7,74.5,69.2,76.0,71.6,69.0,98,91,74,30.06,29.91,10,1,0,0.00
2013-7-12,83.7,76.1,70.3,73.0,70.7,65.0,98,84,65,30.00,29.93,11,2,0,0.00
2013-7-13,85.0,74.7,64.1,74.0,68.6,62.0,92,81,66,30.09,29.98,8,1,0,0.00
2013-7-14,87.2,77.3,70.9,75.0,71.7,69.0,96,83,61,30.18,30.06,8,1,0,0.00
2013-7-15,87.4,78.4,72.6,73.0,71.6,71.0,95,81,60,30.29,30.18,9,1,0,0.00
2013-7-16,89.1,78.9,71.5,73.0,71.4,69.0,95,79,54,30.34,30.26,6,1,0,0.00
2013-7-17,90.1,79.7,69.5,77.0,72.3,68.0,98,79,55,30.33,30.18,9,1,0,0.00
2013-7-18,90.5,79.4,71.0,75.0,71.4,69.0,95,78,53,30.24,30.08,6,0,0,0.00
2013-7-19,89.3,78.8,69.2,75.0,72.2,68.0,97,82,57,30.15,30.00,7,1,0,0.00
2013-7-20,85.3,76.3,69.5,75.0,72.4,68.0,97,88,68,30.07,29.95,8,1,0,0.00
2013-7-21,84.9,74.6,69.8,76.0,71.4,69.0,97,90,68,30.07,29.98,18,2,0,0.00
2013-7-22,80.6,73.7,68.6,75.0,70.8,68.0,98,91,73,30.04,29.94,16,2,0,0.00
2013-7-23,72.5,68.8,69.6,71.0,64.9,-99.9,98,94,93,30.03,29.91,8,-26,0,0.00
2013-7-24,82.3,73.7,68.6,75.0,71.4,68.0,99,93,75,29.98,29.89,7,1,0,0.00
2013-7-25,82.1,75.1,68.0,72.0,67.8,64.0,96,79,55,30.07,29.93,8,2,0,0.00
2013-7-26,84.8,74.5,63.6,71.0,67.8,63.0,98,81,61,30.11,30.02,7,0,0,0.00
2013-7-27,81.7,74.1,67.9,72.0,68.8,66.0,97,84,59,30.02,29.94,9,2,0,0.00
2013-7-28,82.6,75.3,69.4,71.0,69.5,67.0,96,83,66,30.11,29.97,7,1,0,0.00
2013-7-29,80.2,71.0,64.5,67.0,62.7,56.0,94,77,44,30.23,30.10,6,0,0,0.00
2013-7-30,88.9,75.6,61.5,75.0,66.7,60.0,95,76,51,30.26,30.12,7,0,0,0.00
2013-7-31,82.1,73.8,69.2,77.0,71.2,68.0,97,92,79,30.17,29.99,7,1,0,0.00
2013-8-1,83.9,74.9,68.3,73.0,70.3,68.0,98,86,66,30.05,29.99,8,2,0,0.00
2013-8-2,85.9,75.4,66.1,71.0,68.1,65.0,98,80,52,30.08,30.00,6,0,0,0.00
2013-8-3,83.2,74.1,65.2,76.0,70.9,64.0,97,90,73,30.11,30.04,10,1,0,0.00
2013-8-4,84.5,77.5,69.6,74.0,71.8,67.0,98,83,65,30.12,30.05,10,2,0,0.00
2013-8-5,81.4,73.8,68.3,71.0,67.0,62.0,95,80,55,30.12,30.02,5,0,0,0.00
2013-8-6,80.7,72.9,68.5,75.0,69.5,-99.9,97,91,77,30.09,29.99,5,0,0,0.00
2013-8-7,88.8,75.8,70.0,79.0,72.9,69.0,98,91,70,30.07,29.98,9,1,0,0.00
2013-8-8,88.5,76.2,68.0,80.0,72.7,67.0,98,89,70,30.08,29.99,10,1,0,0.00
2013-8-9,89.7,79.0,71.2,77.0,74.2,70.0,98,86,64,30.11,30.03,8,1,0,0.00
2013-8-10,83.6,75.2,70.5,77.0,73.0,70.0,98,93,78,30.17,30.09,12,1,0,0.00
2013-8-11,87.3,78.0,70.0,77.0,73.6,69.0,99,87,66,30.20,30.10,7,1,0,0.00
2013-8-12,87.3,78.1,70.9,77.0,73.5,70.0,97,86,69,30.16,30.02,10,2,0,0.00
2013-8-13,83.9,77.5,71.9,75.0,72.7,71.0,96,85,69,30.03,29.93,10,3,0,0.00
2013-8-14,80.2,73.1,66.3,72.0,67.8,62.0,94,84,62,30.06,29.96,10,1,0,0.00
2013-8-15,75.8,69.4,63.7,68.0,64.1,60.0,89,83,74,30.11,30.03,7,1,0,0.00
2013-8-16,70.4,67.1,64.3,65.0,62.8,61.0,91,86,80,30.14,30.06,6,1,0,0.00
2013-8-17,69.9,66.7,64.4,65.0,63.7,62.0,95,90,83,30.17,30.09,7,0,0,0.00
2013-8-18,76.1,70.0,65.8,70.0,67.3,65.0,97,91,78,30.21,30.12,8,1,0,0.00
2013-8-19,85.2,74.7,68.2,74.0,70.6,67.0,97,88,65,30.17,30.06,7,1,0,0.00
2013-8-20,83.8,76.2,70.5,75.0,72.5,69.0,96,89,74,30.19,30.10,5,0,0,0.00
2013-8-21,87.5,73.4,68.9,74.0,68.0,-99.9,98,88,65,30.23,30.14,7,-20,0,0.00
2013-8-22,83.9,75.7,68.7,76.0,72.5,68.0,98,90,72,30.21,30.08,5,1,0,0.00
2013-8-23,86.8,76.8,68.3,75.0,71.8,68.0,98,86,61,30.14,30.03,7,1,0,0.00
2013-8-24,88.0,77.2,68.8,75.0,71.6,68.0,97,83,64,30.25,30.09,7,1,0,0.00
2013-8-25,85.1,74.7,65.3,69.0,66.6,63.0,95,77,53,30.37,30.25,6,0,0,0.00
2013-8-26,83.6,71.8,60.2,69.0,63.6,59.0,97,77,52,30.35,30.21,1,0,0,0.00
2013-8-27,84.3,72.7,61.8,73.0,66.4,61.0,98,82,59,30.22,30.10,8,0,0,0.00
2013-8-28,87.3,75.7,65.1,74.0,69.2,64.0,98,82,55,30.14,30.05,8,1,0,0.00
2013-8-29,88.3,77.7,67.2,74.0,71.1,66.0,97,82,60,30.11,30.00,10,1,0,0.00
2013-8-30,88.9,78.3,70.2,78.0,73.3,69.0,97,85,66,30.05,29.96,6,0,0,0.00
2013-8-31,90.4,79.1,70.7,77.0,73.2,70.0,97,83,56,30.00,29.89,8,0,0,0.00
2013-9-1,87.9,78.5,72.1,76.0,73.1,71.0,96,84,61,29.98,29.89,10,2,0,0.00
2013-9-2,84.1,73.6,68.1,74.0,67.3,-99.9,98,85,64,30.05,29.91,10,-19,0,0.01
2013-9-3,84.6,76.3,67.2,74.0,70.7,66.0,98,84,58,30.04,29.95,7,1,0,0.00
2013-9-4,84.6,74.0,64.6,70.0,66.1,62.0,97,79,49,30.16,30.03,6,1,0,0.00
2013-9-5,83.8,72.8,62.9,70.0,66.3,62.0,97,82,56,30.21,30.13,7,0,0,0.00
2013-9-6,89.0,74.8,63.7,73.0,68.0,62.0,97,81,54,30.19,30.09,0,0,0,0.00
2013-9-7,88.4,75.7,65.6,72.0,68.6,65.0,98,81,50,30.16,30.05,0,0,0,0.00
2013-9-8,87.3,76.1,64.6,76.0,69.8,64.0,98,82,57,30.08,29.99,8,0,0,0.00
2013-9-9,90.3,76.8,67.8,75.0,71.0,67.0,98,84,57,30.13,30.04,5,0,0,0.00
2013-9-10,89.6,78.0,69.3,74.0,71.3,68.0,97,81,55,30.24,30.13,5,0,0,0.00
2013-9-11,89.6,77.0,67.0,72.0,68.7,66.0,97,78,50,30.26,30.14,5,0,0,0.00
2013-9-12,87.7,75.8,65.8,75.0,68.6,65.0,97,80,52,30.14,29.96,9,1,0,0.00
2013-9-13,80.6,72.3,63.4,70.0,63.4,55.0,97,76,45,30.00,29.92,14,2,0,0.00
2013-9-14,79.0,65.9,55.2,61.0,55.8,52.0,91,72,44,30.11,30.00,7,0,0,0.00
2013-9-15,82.4,68.2,56.9,68.0,61.5,55.0,97,81,48,30.19,30.11,9,1,0,0.00
2013-9-16,83.2,70.6,59.3,69.0,61.9,58.0,98,77,46,30.21,30.13,6,1,0,0.00
2013-9-17,83.4,73.3,64.8,71.0,66.2,62.0,91,79,64,30.23,30.14,7,1,0,0.00
2013-9-18,82.2,71.7,64.3,68.0,64.5,61.0,90,79,61,30.24,30.14,6,1,0,0.00
2013-9-19,84.3,72.0,61.5,68.0,64.8,60.0,96,79,57,30.22,30.10,5,0,0,0.00
2013-9-20,85.3,73.9,63.2,69.0,65.8,62.0,96,77,55,30.11,29.90,6,1,0,0.00
2013-9-21,72.4,68.3,61.3,71.0,65.9,57.0,96,92,85,29.90,29.79,13,2,0,0.03
2013-9-22,75.5,63.9,53.8,61.0,56.9,52.0,96,79,50,29.96,29.87,9,2,0,0.00
2013-9-23,81.9,67.0,54.4,64.0,59.4,53.0,95,79,52,30.04,29.95,6,0,0,0.00
2013-9-24,70.8,66.9,62.3,67.0,64.5,60.0,95,92,87,30.04,29.90,8,1,0,0.00
2013-9-25,76.5,68.3,64.6,69.0,65.9,63.0,97,92,78,29.93,29.85,1,0,0,0.00
2013-9-26,78.9,69.2,63.3,67.0,63.8,62.0,96,84,61,30.06,29.92,7,0,0,0.00
2013-9-27,80.6,67.7,58.6,66.0,60.1,57.0,98,79,47,30.19,30.06,0,0,0,0.00
2013-9-28,78.3,65.6,56.1,61.0,58.0,55.0,97,79,51,30.26,30.14,8,0,0,0.00
2013-9-29,74.6,63.7,52.7,62.0,57.4,52.0,97,82,58,30.19,30.07,5,0,0,0.00
2013-9-30,75.5,64.5,58.5,63.0,59.2,57.0,94,84,61,30.13,30.04,5,0,0,0.00
2013-10-1,81.1,68.9,58.5,68.0,63.6,57.0,97,84,62,30.20,30.09,8,1,0,0.00
2013-10-2,83.2,70.7,60.5,69.0,64.3,59.0,97,82,53,30.21,30.10,4,0,0,0.00
2013-10-3,82.9,71.9,64.0,68.0,65.1,63.0,97,81,55,30.17,30.08,7,1,0,0.00
2013-10-4,85.4,72.0,61.9,71.0,66.2,61.0,97,83,57,30.19,30.11,7,0,0,0.00
2013-10-5,85.9,73.5,63.5,70.0,66.6,62.0,97,81,58,30.15,30.01,7,1,0,0.00
2013-10-6,79.3,70.7,56.6,70.0,66.3,54.0,96,86,71,30.01,29.86,11,2,0,0.00
2013-10-7,68.3,59.8,53.8,55.0,52.3,50.0,95,77,55,30.11,29.95,11,3,0,0.00
2013-10-8,76.0,63.7,51.5,63.0,55.3,48.0,89,75,57,30.16,30.06,9,1,0,0.00
2013-10-9,76.9,66.2,60.6,61.0,56.1,51.0,90,71,53,30.24,30.15,11,1,0,0.00
2013-10-10,77.7,66.2,57.3,64.0,59.7,56.0,95,81,53,30.20,30.08,6,0,0,0.00
2013-10-11,77.3,64.7,55.2,62.0,58.1,54.0,98,81,51,30.15,30.05,5,0,0,0.00
2013-10-12,78.5,64.7,52.0,65.0,58.2,51.0,98,82,54,30.18,30.08,7,1,0,0.00
2013-10-13,78.9,67.6,58.6,62.0,59.5,57.0,96,77,51,30.27,30.18,10,1,0,0.00
2013-10-14,79.2,67.0,58.0,65.0,60.8,56.0,95,82,59,30.27,30.14,6,0,0,0.00
2013-10-15,72.0,64.1,57.5,62.0,59.7,56.0,97,86,67,30.18,30.08,5,0,0,0.00
2013-10-16,71.7,64.7,59.5,65.0,62.0,58.0,97,91,79,30.11,29.99,6,1,0,0.01
2013-10-17,67.0,63.0,52.5,66.0,61.4,51.0,97,94,89,30.06,29.94,9,2,0,0.01
2013-10-18,64.9,56.2,49.2,54.0,51.4,48.0,98,85,62,30.14,30.02,7,0,0,0.00
2013-10-19,67.7,57.0,48.5,57.0,52.6,46.0,97,86,65,30.10,30.00,10,2,0,0.00
2013-10-20,63.8,50.2,38.5,46.0,41.7,34.0,97,76,34,30.17,30.09,5,0,0,0.00
2013-10-21,70.3,53.9,38.4,53.0,44.8,37.0,97,75,37,30.20,30.08,7,0,0,0.00
2013-10-22,65.4,56.7,49.6,56.0,52.6,48.0,95,86,66,30.10,29.94,8,1,0,0.00
2013-10-23,56.2,48.6,38.9,47.0,41.2,37.0,96,78,50,30.19,29.95,12,2,0,0.00
2013-10-24,60.9,48.3,35.7,45.0,40.1,34.0,96,76,48,30.37,30.20,12,2,0,0.00
2013-10-25,51.4,41.7,32.4,37.0,31.1,28.0,92,68,43,30.54,30.37,12,2,0,0.00
2013-10-26,61.4,45.2,28.8,40.0,33.0,27.0,95,67,33,30.43,30.24,7,1,0,0.00
2013-10-27,68.4,56.1,42.5,55.0,47.8,39.0,94,75,54,30.24,30.16,7,1,0,0.00
2013-10-28,64.9,58.1,54.0,59.0,55.4,52.0,96,90,77,30.32,30.19,6,1,0,0.00
2013-10-29,74.3,62.1,52.7,64.0,57.7,52.0,98,86,62,30.37,30.26,9,0,0,0.00
2013-10-30,76.5,65.1,55.5,62.0,57.9,54.0,97,79,53,30.34,30.17,10,1,0,0.00
2013-10-31,72.2,66.5,61.7,67.0,61.7,56.0,94,84,77,30.17,29.79,17,5,0,0.00
2013-11-1,69.7,62.0,49.3,65.0,54.1,46.0,95,77,49,29.93,29.79,15,3,0,0.00
2013-11-2,64.0,53.2,43.2,49.0,43.1,38.0,96,72,39,30.20,29.92,12,2,0,0.00
2013-11-3,60.1,49.0,40.6,43.0,38.7,31.0,93,70,34,30.36,30.20,6,1,0,0.00
2013-11-4,66.2,52.9,39.8,42.0,39.9,37.0,90,64,37,30.48,30.35,7,0,0,0.00
2013-11-5,63.1,53.6,47.6,46.0,40.8,37.0,75,62,50,30.48,30.35,5,1,0,0.00
2013-11-6,72.9,62.7,51.8,61.0,56.0,43.0,93,79,65,30.34,30.12,11,1,0,0.00
2013-11-7,62.2,50.4,42.9,61.0,42.6,32.0,96,76,51,30.38,30.11,18,6,0,0.01
2013-11-8,57.6,44.7,35.2,37.0,33.3,27.0,89,67,32,30.47,30.33,8,1,0,0.01
2013-11-9,58.2,47.7,35.1,43.0,37.7,32.0,90,71,39,30.42,30.29,9,1,0,0.01
2013-11-10,67.2,54.6,45.0,47.0,43.7,39.0,93,69,44,30.40,30.31,8,1,0,0.00
2013-11-11,67.8,50.8,39.2,38.0,32.4,19.0,89,55,16,30.39,30.24,4,0,0,0.00
2013-11-12,50.8,41.5,31.9,44.0,30.3,16.0,88,66,43,30.61,30.25,19,6,0,0.00
2013-11-13,46.3,34.4,26.9,24.0,20.1,16.0,81,58,35,30.73,30.56,8,1,0,0.00
2013-11-14,58.4,40.1,24.3,28.0,21.4,17.0,85,53,20,30.58,30.35,5,0,0,0.00
2013-11-15,56.1,49.7,40.7,50.0,42.5,27.0,97,78,57,30.35,30.15,7,1,0,0.00
2013-11-16,66.3,57.7,49.8,60.0,55.0,49.0,100,90,79,30.25,30.11,7,1,0,0.00
2013-11-17,70.1,64.9,59.8,69.0,63.4,57.0,97,95,89,30.11,29.92,14,4,0,0.01
2013-11-18,69.3,58.4,48.5,68.0,43.6,34.0,96,60,36,30.20,29.97,23,5,0,0.00
2013-11-19,54.0,46.1,39.0,34.0,29.4,25.0,72,53,36,30.28,30.18,13,4,0,0.00
2013-11-20,59.4,49.2,36.9,39.0,34.8,30.0,77,58,46,30.34,30.22,12,2,0,0.00
2013-11-21,63.6,57.4,51.1,54.0,49.1,39.0,83,74,62,30.40,30.30,7,1,0,0.00
2013-11-22,64.6,57.9,51.8,60.0,55.1,50.0,96,90,82,30.37,30.25,7,1,0,0.00
2013-11-23,51.5,44.9,32.9,50.0,39.3,22.0,96,82,55,30.47,30.27,15,8,0,0.00
2013-11-24,40.7,31.7,26.1,24.0,16.7,10.0,75,56,29,30.64,30.47,18,3,0,0.01
2013-11-25,40.9,35.6,27.2,37.0,23.4,15.0,95,64,41,30.53,30.22,13,2,0,0.07
2013-11-26,46.5,40.9,35.5,46.0,39.9,33.0,97,96,92,30.21,29.84,17,6,0,0.02
2013-11-27,35.3,31.9,25.1,34.0,22.8,14.0,93,70,57,30.46,29.92,21,8,0,0.01
2013-11-28,42.7,29.4,18.8,24.0,19.2,14.0,90,68,39,30.59,30.45,7,0,0,0.06
2013-11-29,52.8,36.8,23.7,30.0,25.7,21.0,93,68,31,30.66,30.56,6,1,0,0.01
2013-11-30,54.2,42.5,31.3,33.0,30.1,26.0,84,63,40,30.61,30.38,7,1,0,0.01
2013-12-1,55.5,45.5,32.6,41.0,35.7,28.0,85,70,51,30.37,30.07,8,1,0,0.01
2013-12-2,54.5,50.0,46.1,53.0,48.4,41.0,97,94,74,30.06,29.86,7,1,0,0.05
2013-12-3,59.1,54.4,47.0,58.0,53.6,46.0,98,97,93,29.92,29.85,4,0,0,0.02
2013-12-4,71.5,64.5,58.5,64.0,61.7,58.0,98,91,75,30.03,29.91,15,3,0,0.01
2013-12-5,74.7,68.0,57.6,68.0,65.7,56.0,96,92,77,30.08,29.96,12,4,0,0.03
2013-12-6,57.0,44.3,36.3,56.0,43.7,35.0,98,97,95,30.31,29.99,16,3,0,0.00
2013-12-7,37.9,35.8,33.7,36.0,34.0,33.0,97,93,90,30.49,30.31,13,4,0,0.00
2013-12-8,50.3,46.4,37.9,50.0,45.8,36.0,98,97,94,30.35,30.14,7,1,0,0.00
2013-12-9,50.3,45.3,39.3,50.0,44.5,39.0,100,97,91,30.25,30.11,11,3,0,0.01
2013-12-10,40.0,34.5,27.8,40.0,31.6,26.0,98,89,69,30.46,30.10,13,2,0,0.01
2013-12-11,52.1,36.8,25.6,36.0,28.1,23.0,96,74,42,30.56,30.46,6,1,0,0.01
2013-12-12,40.7,31.7,25.0,28.0,22.2,17.0,87,70,39,30.64,30.51,10,3,0,0.01
2013-12-13,50.4,38.4,24.8,33.0,25.3,20.0,87,62,35,30.51,30.21,5,0,0,0.02
2013-12-14,53.7,48.1,38.2,53.0,44.7,31.0,97,89,57,30.21,29.88,14,4,0,0.01
2013-12-15,38.1,34.7,30.9,36.0,31.6,28.0,93,88,83,30.36,30.05,17,4,0,0.02
2013-12-16,53.0,39.0,27.8,35.0,31.5,27.0,96,77,46,30.40,30.28,9,3,0,0.01
2013-12-17,49.7,39.1,33.7,37.0,33.2,31.0,89,80,61,30.32,30.29,11,2,0,0.01